sensor_id;sensor_type;location;lat;lon;timestamp;P1;durP1;ratioP1;P2;durP2;ratioP2
30249;SDS011;17064;47.974;13.826;2022-12-24T00:04:55;0.20;;;0.20;;
30249;SDS011;17064;47.974;13.826;2022-12-24T00:09:56;0.10;;;0.10;;
30249;SDS011;17064;47.974;13.826;2022-12-24T00:14:56;0.10;;;0.10;;
30249;SDS011;17064;47.974;13.826;2022-12-24T00:19:57;0.47;;;0.13;;
30249;SDS011;17064;47.974;13.826;2022-12-24T00:24:58;1.38;;;0.15;;
30249;SDS011;17064;47.974;13.826;2022-12-24T00:29:58;0.10;;;0.10;;
30249;SDS011;17064;47.974;13.826;2022-12-24T00:34:59;0.17;;;0.17;;
30249;SDS011;17064;47.974;13.826;2022-12-24T00:40:00;0.20;;;0.20;;
30249;SDS011;17064;47.974;13.826;2022-12-24T00:45:01;1.02;;;0.10;;
30249;SDS011;17064;47.974;13.826;2022-12-24T00:50:02;0.40;;;0.20;;
30249;SDS011;17064;47.974;13.826;2022-12-24T00:55:03;0.82;;;0.20;;
30249;SDS011;17064;47.974;13.826;2022-12-24T01:00:04;1.40;;;0.40;;
30249;SDS011;17064;47.974;13.826;2022-12-24T01:05:06;0.57;;;0.30;;
30249;SDS011;17064;47.974;13.826;2022-12-24T01:10:11;0.30;;;0.30;;
30249;SDS011;17064;47.974;13.826;2022-12-24T01:15:13;0.68;;;0.30;;
30249;SDS011;17064;47.974;13.826;2022-12-24T01:20:15;1.17;;;0.20;;
30249;SDS011;17064;47.974;13.826;2022-12-24T01:25:16;1.20;;;0.35;;
30249;SDS011;17064;47.974;13.826;2022-12-24T01:30:17;2.65;;;0.25;;
30249;SDS011;17064;47.974;13.826;2022-12-24T01:35:18;0.30;;;0.30;;
30249;SDS011;17064;47.974;13.826;2022-12-24T01:40:18;0.45;;;0.35;;
30249;SDS011;17064;47.974;13.826;2022-12-24T01:45:42;0.57;;;0.30;;
30249;SDS011;17064;47.974;13.826;2022-12-24T01:50:43;0.40;;;0.30;;
30249;SDS011;17064;47.974;13.826;2022-12-24T01:55:44;0.80;;;0.40;;
30249;SDS011;17064;47.974;13.826;2022-12-24T02:00:46;1.77;;;0.60;;
30249;SDS011;17064;47.974;13.826;2022-12-24T02:05:48;1.48;;;0.63;;
30249;SDS011;17064;47.974;13.826;2022-12-24T02:10:53;0.30;;;0.30;;
30249;SDS011;17064;47.974;13.826;2022-12-24T02:31:46;0.40;;;0.30;;
30249;SDS011;17064;47.974;13.826;2022-12-24T02:36:58;2.55;;;0.75;;
30249;SDS011;17064;47.974;13.826;2022-12-24T02:42:04;4.63;;;0.63;;
30249;SDS011;17064;47.974;13.826;2022-12-24T03:08:11;2.83;;;0.40;;
30249;SDS011;17064;47.974;13.826;2022-12-24T03:13:29;3.50;;;0.57;;
30249;SDS011;17064;47.974;13.826;2022-12-24T03:18:30;0.98;;;0.63;;
30249;SDS011;17064;47.974;13.826;2022-12-24T03:23:32;1.33;;;0.45;;
30249;SDS011;17064;47.974;13.826;2022-12-24T03:28:34;2.85;;;0.50;;
30249;SDS011;17064;47.974;13.826;2022-12-24T03:33:37;1.23;;;0.50;;
30249;SDS011;17064;47.974;13.826;2022-12-24T03:38:38;1.13;;;0.50;;
30249;SDS011;17064;47.974;13.826;2022-12-24T03:43:39;0.38;;;0.30;;
30249;SDS011;17064;47.974;13.826;2022-12-24T03:48:40;1.83;;;0.32;;
30249;SDS011;17064;47.974;13.826;2022-12-24T03:53:41;0.52;;;0.45;;
30249;SDS011;17064;47.974;13.826;2022-12-24T03:58:41;1.13;;;0.52;;
30249;SDS011;17064;47.974;13.826;2022-12-24T04:03:43;2.55;;;0.77;;
30249;SDS011;17064;47.974;13.826;2022-12-24T04:08:44;3.45;;;0.50;;
30249;SDS011;17064;47.974;13.826;2022-12-24T04:13:44;2.97;;;0.80;;
30249;SDS011;17064;47.974;13.826;2022-12-24T04:18:45;1.25;;;0.43;;
30249;SDS011;17064;47.974;13.826;2022-12-24T04:23:46;5.93;;;0.40;;
30249;SDS011;17064;47.974;13.826;2022-12-24T04:28:47;0.68;;;0.38;;
30249;SDS011;17064;47.974;13.826;2022-12-24T04:33:49;3.53;;;0.35;;
30249;SDS011;17064;47.974;13.826;2022-12-24T04:38:50;2.28;;;0.40;;
30249;SDS011;17064;47.974;13.826;2022-12-24T04:43:52;2.05;;;0.40;;
30249;SDS011;17064;47.974;13.826;2022-12-24T04:48:53;1.05;;;0.30;;
30249;SDS011;17064;47.974;13.826;2022-12-24T04:53:55;3.67;;;0.60;;
30249;SDS011;17064;47.974;13.826;2022-12-24T04:58:57;0.82;;;0.38;;
30249;SDS011;17064;47.974;13.826;2022-12-24T05:04:00;1.55;;;0.40;;
30249;SDS011;17064;47.974;13.826;2022-12-24T05:09:01;0.95;;;0.65;;
30249;SDS011;17064;47.974;13.826;2022-12-24T05:14:01;2.28;;;0.50;;
30249;SDS011;17064;47.974;13.826;2022-12-24T05:19:02;2.15;;;0.60;;
30249;SDS011;17064;47.974;13.826;2022-12-24T05:24:03;2.08;;;0.57;;
30249;SDS011;17064;47.974;13.826;2022-12-24T05:29:23;0.68;;;0.40;;
30249;SDS011;17064;47.974;13.826;2022-12-24T05:34:23;1.52;;;0.45;;
30249;SDS011;17064;47.974;13.826;2022-12-24T05:39:24;3.08;;;0.50;;
30249;SDS011;17064;47.974;13.826;2022-12-24T05:44:25;3.78;;;0.80;;
30249;SDS011;17064;47.974;13.826;2022-12-24T05:49:26;3.45;;;0.60;;
30249;SDS011;17064;47.974;13.826;2022-12-24T05:54:27;2.90;;;0.30;;
30249;SDS011;17064;47.974;13.826;2022-12-24T05:59:28;3.60;;;1.23;;
30249;SDS011;17064;47.974;13.826;2022-12-24T06:04:29;2.38;;;0.65;;
30249;SDS011;17064;47.974;13.826;2022-12-24T06:09:29;2.03;;;0.40;;
30249;SDS011;17064;47.974;13.826;2022-12-24T06:14:30;2.17;;;0.63;;
30249;SDS011;17064;47.974;13.826;2022-12-24T06:19:31;3.88;;;0.70;;
30249;SDS011;17064;47.974;13.826;2022-12-24T06:24:32;3.40;;;0.60;;
30249;SDS011;17064;47.974;13.826;2022-12-24T06:29:32;0.57;;;0.35;;
30249;SDS011;17064;47.974;13.826;2022-12-24T06:34:33;1.75;;;0.60;;
30249;SDS011;17064;47.974;13.826;2022-12-24T06:39:34;1.30;;;0.70;;
30249;SDS011;17064;47.974;13.826;2022-12-24T06:44:35;1.52;;;0.30;;
30249;SDS011;17064;47.974;13.826;2022-12-24T06:49:36;4.07;;;0.93;;
30249;SDS011;17064;47.974;13.826;2022-12-24T06:54:36;2.83;;;0.30;;
30249;SDS011;17064;47.974;13.826;2022-12-24T06:59:37;0.90;;;0.43;;
30249;SDS011;17064;47.974;13.826;2022-12-24T07:04:38;8.45;;;0.77;;
30249;SDS011;17064;47.974;13.826;2022-12-24T07:09:38;3.50;;;0.52;;
30249;SDS011;17064;47.974;13.826;2022-12-24T07:14:39;1.35;;;0.50;;
30249;SDS011;17064;47.974;13.826;2022-12-24T07:19:40;1.65;;;0.50;;
30249;SDS011;17064;47.974;13.826;2022-12-24T07:24:41;2.70;;;1.30;;
30249;SDS011;17064;47.974;13.826;2022-12-24T07:29:41;2.92;;;1.20;;
30249;SDS011;17064;47.974;13.826;2022-12-24T07:34:42;6.85;;;0.75;;
30249;SDS011;17064;47.974;13.826;2022-12-24T07:39:43;2.83;;;0.63;;
30249;SDS011;17064;47.974;13.826;2022-12-24T07:44:44;4.28;;;1.85;;
30249;SDS011;17064;47.974;13.826;2022-12-24T07:49:45;4.78;;;1.00;;
30249;SDS011;17064;47.974;13.826;2022-12-24T07:54:46;3.63;;;1.00;;
30249;SDS011;17064;47.974;13.826;2022-12-24T07:59:46;2.88;;;0.70;;
30249;SDS011;17064;47.974;13.826;2022-12-24T08:04:47;5.88;;;1.35;;
30249;SDS011;17064;47.974;13.826;2022-12-24T08:09:48;2.28;;;1.05;;
30249;SDS011;17064;47.974;13.826;2022-12-24T08:14:49;7.15;;;1.23;;
30249;SDS011;17064;47.974;13.826;2022-12-24T08:19:49;2.95;;;1.02;;
30249;SDS011;17064;47.974;13.826;2022-12-24T08:24:50;5.75;;;1.40;;
30249;SDS011;17064;47.974;13.826;2022-12-24T08:29:51;1.83;;;1.25;;
30249;SDS011;17064;47.974;13.826;2022-12-24T08:34:51;3.08;;;0.80;;
30249;SDS011;17064;47.974;13.826;2022-12-24T08:39:52;5.13;;;1.58;;
30249;SDS011;17064;47.974;13.826;2022-12-24T08:44:53;3.35;;;1.00;;
30249;SDS011;17064;47.974;13.826;2022-12-24T08:49:53;4.82;;;0.93;;
30249;SDS011;17064;47.974;13.826;2022-12-24T08:54:54;1.63;;;0.63;;
30249;SDS011;17064;47.974;13.826;2022-12-24T08:59:55;2.55;;;0.90;;
30249;SDS011;17064;47.974;13.826;2022-12-24T09:04:55;2.60;;;1.00;;
30249;SDS011;17064;47.974;13.826;2022-12-24T09:09:56;8.75;;;0.90;;
30249;SDS011;17064;47.974;13.826;2022-12-24T09:14:57;3.72;;;1.00;;
30249;SDS011;17064;47.974;13.826;2022-12-24T09:19:57;8.48;;;1.38;;
30249;SDS011;17064;47.974;13.826;2022-12-24T09:24:58;3.95;;;1.00;;
30249;SDS011;17064;47.974;13.826;2022-12-24T09:29:59;3.20;;;1.50;;
30249;SDS011;17064;47.974;13.826;2022-12-24T09:34:59;4.57;;;1.98;;
30249;SDS011;17064;47.974;13.826;2022-12-24T09:40:00;4.65;;;1.58;;
30249;SDS011;17064;47.974;13.826;2022-12-24T09:45:02;3.50;;;1.33;;
30249;SDS011;17064;47.974;13.826;2022-12-24T09:50:38;5.65;;;1.45;;
30249;SDS011;17064;47.974;13.826;2022-12-24T09:55:47;1.33;;;0.73;;
30249;SDS011;17064;47.974;13.826;2022-12-24T10:00:55;4.78;;;1.40;;
30249;SDS011;17064;47.974;13.826;2022-12-24T10:11:23;8.40;;;1.80;;
30249;SDS011;17064;47.974;13.826;2022-12-24T10:22:45;2.75;;;1.38;;
30249;SDS011;17064;47.974;13.826;2022-12-24T10:27:48;4.60;;;1.50;;
30249;SDS011;17064;47.974;13.826;2022-12-24T10:32:53;4.40;;;1.23;;
30249;SDS011;17064;47.974;13.826;2022-12-24T10:37:54;1.95;;;0.63;;
30249;SDS011;17064;47.974;13.826;2022-12-24T10:42:57;1.77;;;0.90;;
30249;SDS011;17064;47.974;13.826;2022-12-24T10:47:59;4.03;;;0.95;;
30249;SDS011;17064;47.974;13.826;2022-12-24T10:53:13;4.68;;;0.90;;
30249;SDS011;17064;47.974;13.826;2022-12-24T10:58:19;0.50;;;0.43;;
30249;SDS011;17064;47.974;13.826;2022-12-24T11:03:21;5.60;;;1.13;;
30249;SDS011;17064;47.974;13.826;2022-12-24T11:08:24;1.13;;;0.55;;
30249;SDS011;17064;47.974;13.826;2022-12-24T11:13:26;1.38;;;0.70;;
30249;SDS011;17064;47.974;13.826;2022-12-24T11:18:36;3.58;;;1.10;;
30249;SDS011;17064;47.974;13.826;2022-12-24T11:23:48;2.08;;;0.60;;
30249;SDS011;17064;47.974;13.826;2022-12-24T11:34:27;1.90;;;0.70;;
30249;SDS011;17064;47.974;13.826;2022-12-24T11:39:30;3.55;;;0.73;;
30249;SDS011;17064;47.974;13.826;2022-12-24T11:44:45;5.32;;;1.30;;
30249;SDS011;17064;47.974;13.826;2022-12-24T11:49:47;5.43;;;1.38;;
30249;SDS011;17064;47.974;13.826;2022-12-24T11:55:02;3.03;;;1.13;;
30249;SDS011;17064;47.974;13.826;2022-12-24T12:00:16;7.75;;;1.77;;
30249;SDS011;17064;47.974;13.826;2022-12-24T12:05:22;17.15;;;5.22;;
30249;SDS011;17064;47.974;13.826;2022-12-24T12:10:27;5.35;;;1.40;;
30249;SDS011;17064;47.974;13.826;2022-12-24T12:15:32;3.20;;;0.80;;
30249;SDS011;17064;47.974;13.826;2022-12-24T12:20:44;5.82;;;0.70;;
30249;SDS011;17064;47.974;13.826;2022-12-24T12:26:06;2.47;;;0.40;;
30249;SDS011;17064;47.974;13.826;2022-12-24T12:31:14;3.00;;;0.80;;
30249;SDS011;17064;47.974;13.826;2022-12-24T12:36:35;1.67;;;0.60;;
30249;SDS011;17064;47.974;13.826;2022-12-24T12:57:30;3.05;;;0.88;;
30249;SDS011;17064;47.974;13.826;2022-12-24T13:02:40;4.82;;;0.90;;
30249;SDS011;17064;47.974;13.826;2022-12-24T13:24:05;5.30;;;0.68;;
30249;SDS011;17064;47.974;13.826;2022-12-24T13:29:29;3.15;;;0.65;;
30249;SDS011;17064;47.974;13.826;2022-12-24T13:34:51;4.53;;;0.70;;
30249;SDS011;17064;47.974;13.826;2022-12-24T13:55:52;4.70;;;0.80;;
30249;SDS011;17064;47.974;13.826;2022-12-24T14:00:59;5.43;;;0.70;;
30249;SDS011;17064;47.974;13.826;2022-12-24T14:12:12;4.07;;;1.40;;
30249;SDS011;17064;47.974;13.826;2022-12-24T14:16:59;4.78;;;1.00;;
30249;SDS011;17064;47.974;13.826;2022-12-24T14:22:03;7.88;;;1.13;;
30249;SDS011;17064;47.974;13.826;2022-12-24T14:32:32;5.10;;;1.27;;
30249;SDS011;17064;47.974;13.826;2022-12-24T14:37:40;7.07;;;0.80;;
30249;SDS011;17064;47.974;13.826;2022-12-24T14:53:27;7.97;;;1.00;;
30249;SDS011;17064;47.974;13.826;2022-12-24T14:58:48;3.25;;;0.90;;
30249;SDS011;17064;47.974;13.826;2022-12-24T15:14:29;9.52;;;1.73;;
30249;SDS011;17064;47.974;13.826;2022-12-24T15:19:38;4.30;;;0.95;;
30249;SDS011;17064;47.974;13.826;2022-12-24T15:24:43;9.23;;;1.08;;
30249;SDS011;17064;47.974;13.826;2022-12-24T15:29:46;4.10;;;1.10;;
30249;SDS011;17064;47.974;13.826;2022-12-24T15:40:03;3.45;;;1.42;;
30249;SDS011;17064;47.974;13.826;2022-12-24T15:45:22;6.22;;;1.15;;
30249;SDS011;17064;47.974;13.826;2022-12-24T15:50:31;12.32;;;1.55;;
30249;SDS011;17064;47.974;13.826;2022-12-24T15:55:37;6.90;;;1.30;;
30249;SDS011;17064;47.974;13.826;2022-12-24T16:00:40;7.68;;;1.30;;
30249;SDS011;17064;47.974;13.826;2022-12-24T16:05:41;6.05;;;1.50;;
30249;SDS011;17064;47.974;13.826;2022-12-24T16:10:49;8.98;;;1.95;;
30249;SDS011;17064;47.974;13.826;2022-12-24T16:16:03;8.63;;;2.53;;
30249;SDS011;17064;47.974;13.826;2022-12-24T16:21:22;7.05;;;2.30;;
30249;SDS011;17064;47.974;13.826;2022-12-24T16:26:38;7.30;;;2.33;;
30249;SDS011;17064;47.974;13.826;2022-12-24T16:31:44;4.13;;;1.90;;
30249;SDS011;17064;47.974;13.826;2022-12-24T16:36:48;5.80;;;2.25;;
30249;SDS011;17064;47.974;13.826;2022-12-24T16:41:53;4.88;;;2.25;;
30249;SDS011;17064;47.974;13.826;2022-12-24T16:47:16;10.40;;;3.65;;
30249;SDS011;17064;47.974;13.826;2022-12-24T16:52:21;10.32;;;3.00;;
30249;SDS011;17064;47.974;13.826;2022-12-24T16:57:25;6.85;;;2.38;;
30249;SDS011;17064;47.974;13.826;2022-12-24T17:02:26;9.93;;;3.60;;
30249;SDS011;17064;47.974;13.826;2022-12-24T17:07:26;12.07;;;5.10;;
30249;SDS011;17064;47.974;13.826;2022-12-24T17:12:27;12.63;;;4.20;;
30249;SDS011;17064;47.974;13.826;2022-12-24T17:17:28;11.50;;;5.20;;
30249;SDS011;17064;47.974;13.826;2022-12-24T17:22:29;13.52;;;5.20;;
30249;SDS011;17064;47.974;13.826;2022-12-24T17:27:30;11.90;;;5.53;;
30249;SDS011;17064;47.974;13.826;2022-12-24T17:32:31;13.70;;;5.43;;
30249;SDS011;17064;47.974;13.826;2022-12-24T17:37:32;12.77;;;4.70;;
30249;SDS011;17064;47.974;13.826;2022-12-24T17:42:33;10.98;;;5.63;;
30249;SDS011;17064;47.974;13.826;2022-12-24T17:47:33;10.23;;;3.72;;
30249;SDS011;17064;47.974;13.826;2022-12-24T17:52:34;8.27;;;2.60;;
30249;SDS011;17064;47.974;13.826;2022-12-24T17:57:35;5.70;;;2.50;;
30249;SDS011;17064;47.974;13.826;2022-12-24T18:02:36;6.68;;;3.10;;
30249;SDS011;17064;47.974;13.826;2022-12-24T18:07:37;9.20;;;3.53;;
30249;SDS011;17064;47.974;13.826;2022-12-24T18:12:38;10.82;;;4.25;;
30249;SDS011;17064;47.974;13.826;2022-12-24T18:17:39;12.30;;;4.72;;
30249;SDS011;17064;47.974;13.826;2022-12-24T18:22:39;8.52;;;4.03;;
30249;SDS011;17064;47.974;13.826;2022-12-24T18:27:40;11.07;;;4.07;;
30249;SDS011;17064;47.974;13.826;2022-12-24T18:32:41;9.52;;;3.47;;
30249;SDS011;17064;47.974;13.826;2022-12-24T18:37:41;11.93;;;3.90;;
30249;SDS011;17064;47.974;13.826;2022-12-24T18:42:42;6.85;;;3.20;;
30249;SDS011;17064;47.974;13.826;2022-12-24T18:47:43;6.45;;;2.95;;
30249;SDS011;17064;47.974;13.826;2022-12-24T18:52:44;9.85;;;4.50;;
30249;SDS011;17064;47.974;13.826;2022-12-24T18:57:44;12.40;;;5.00;;
30249;SDS011;17064;47.974;13.826;2022-12-24T19:02:46;8.45;;;3.70;;
30249;SDS011;17064;47.974;13.826;2022-12-24T19:07:47;8.38;;;2.70;;
30249;SDS011;17064;47.974;13.826;2022-12-24T19:12:48;10.30;;;3.15;;
30249;SDS011;17064;47.974;13.826;2022-12-24T19:17:52;12.20;;;2.70;;
30249;SDS011;17064;47.974;13.826;2022-12-24T19:22:54;20.60;;;4.05;;
30249;SDS011;17064;47.974;13.826;2022-12-24T19:27:54;10.25;;;2.53;;
30249;SDS011;17064;47.974;13.826;2022-12-24T19:32:55;6.97;;;2.88;;
30249;SDS011;17064;47.974;13.826;2022-12-24T19:37:56;9.10;;;2.55;;
30249;SDS011;17064;47.974;13.826;2022-12-24T19:42:57;8.77;;;3.13;;
30249;SDS011;17064;47.974;13.826;2022-12-24T19:47:58;8.88;;;2.72;;
30249;SDS011;17064;47.974;13.826;2022-12-24T19:52:59;6.25;;;2.55;;
30249;SDS011;17064;47.974;13.826;2022-12-24T19:58:00;7.65;;;2.67;;
30249;SDS011;17064;47.974;13.826;2022-12-24T20:03:01;11.90;;;3.03;;
30249;SDS011;17064;47.974;13.826;2022-12-24T20:08:01;10.25;;;2.50;;
30249;SDS011;17064;47.974;13.826;2022-12-24T20:13:02;9.32;;;2.85;;
30249;SDS011;17064;47.974;13.826;2022-12-24T20:18:03;7.20;;;2.92;;
30249;SDS011;17064;47.974;13.826;2022-12-24T20:23:05;6.07;;;2.35;;
30249;SDS011;17064;47.974;13.826;2022-12-24T20:28:07;10.55;;;1.65;;
30249;SDS011;17064;47.974;13.826;2022-12-24T20:33:08;12.73;;;2.30;;
30249;SDS011;17064;47.974;13.826;2022-12-24T20:38:09;6.85;;;2.78;;
30249;SDS011;17064;47.974;13.826;2022-12-24T20:43:10;7.03;;;2.67;;
30249;SDS011;17064;47.974;13.826;2022-12-24T20:48:12;10.82;;;2.80;;
30249;SDS011;17064;47.974;13.826;2022-12-24T20:53:13;6.05;;;2.00;;
30249;SDS011;17064;47.974;13.826;2022-12-24T20:58:13;5.13;;;1.77;;
30249;SDS011;17064;47.974;13.826;2022-12-24T21:03:17;9.55;;;1.60;;
30249;SDS011;17064;47.974;13.826;2022-12-24T21:08:18;8.13;;;1.77;;
30249;SDS011;17064;47.974;13.826;2022-12-24T21:13:19;10.63;;;2.00;;
30249;SDS011;17064;47.974;13.826;2022-12-24T21:18:19;5.68;;;2.00;;
30249;SDS011;17064;47.974;13.826;2022-12-24T21:23:21;5.72;;;2.30;;
30249;SDS011;17064;47.974;13.826;2022-12-24T21:28:22;6.20;;;1.73;;
30249;SDS011;17064;47.974;13.826;2022-12-24T21:33:22;7.32;;;1.67;;
30249;SDS011;17064;47.974;13.826;2022-12-24T21:38:23;8.50;;;2.00;;
30249;SDS011;17064;47.974;13.826;2022-12-24T21:43:24;7.95;;;2.08;;
30249;SDS011;17064;47.974;13.826;2022-12-24T21:48:25;5.85;;;1.80;;
30249;SDS011;17064;47.974;13.826;2022-12-24T21:53:45;3.75;;;1.95;;
30249;SDS011;17064;47.974;13.826;2022-12-24T21:59:04;4.32;;;1.38;;
30249;SDS011;17064;47.974;13.826;2022-12-24T22:04:05;6.65;;;1.98;;
30249;SDS011;17064;47.974;13.826;2022-12-24T22:09:06;8.70;;;2.83;;
30249;SDS011;17064;47.974;13.826;2022-12-24T22:14:27;7.78;;;2.78;;
30249;SDS011;17064;47.974;13.826;2022-12-24T22:19:28;6.57;;;2.38;;
30249;SDS011;17064;47.974;13.826;2022-12-24T22:24:29;8.63;;;2.53;;
30249;SDS011;17064;47.974;13.826;2022-12-24T22:29:30;7.97;;;2.63;;
30249;SDS011;17064;47.974;13.826;2022-12-24T22:34:31;6.05;;;1.95;;
30249;SDS011;17064;47.974;13.826;2022-12-24T22:39:31;8.38;;;2.13;;
30249;SDS011;17064;47.974;13.826;2022-12-24T22:44:32;5.47;;;2.03;;
30249;SDS011;17064;47.974;13.826;2022-12-24T22:49:33;4.43;;;1.83;;
30249;SDS011;17064;47.974;13.826;2022-12-24T22:54:37;4.50;;;2.28;;
30249;SDS011;17064;47.974;13.826;2022-12-24T22:59:38;5.00;;;1.85;;
30249;SDS011;17064;47.974;13.826;2022-12-24T23:04:39;9.65;;;1.73;;
30249;SDS011;17064;47.974;13.826;2022-12-24T23:09:40;5.53;;;2.10;;
30249;SDS011;17064;47.974;13.826;2022-12-24T23:14:41;6.47;;;2.05;;
30249;SDS011;17064;47.974;13.826;2022-12-24T23:19:57;5.88;;;1.35;;
30249;SDS011;17064;47.974;13.826;2022-12-24T23:24:59;5.50;;;1.60;;
30249;SDS011;17064;47.974;13.826;2022-12-24T23:30:00;6.07;;;1.83;;
30249;SDS011;17064;47.974;13.826;2022-12-24T23:35:01;6.05;;;1.73;;
30249;SDS011;17064;47.974;13.826;2022-12-24T23:40:02;3.78;;;1.70;;
30249;SDS011;17064;47.974;13.826;2022-12-24T23:45:03;5.38;;;1.95;;
30249;SDS011;17064;47.974;13.826;2022-12-24T23:50:04;5.10;;;1.85;;
30249;SDS011;17064;47.974;13.826;2022-12-24T23:55:06;6.68;;;1.83;;
